createdAt,value
2023-02-03T00:02:10.930Z,53.38
2023-02-03T00:04:37.992Z,55.53
2023-02-03T00:07:05.189Z,59.53
2023-02-03T00:09:32.204Z,64.83
2023-02-03T00:11:59.156Z,60.35
2023-02-03T00:14:26.106Z,54.93
2023-02-03T00:16:53.058Z,57.23
2023-02-03T00:19:20.106Z,61.65
2023-02-03T00:21:47.163Z,65.91
2023-02-03T00:24:14.113Z,61.30
2023-02-03T00:26:42.869Z,53.87
2023-02-03T00:29:10.057Z,55.39
2023-02-03T00:31:37.708Z,59.23
2023-02-03T00:34:06.206Z,63.59
2023-02-03T00:36:33.689Z,62.76
2023-02-03T00:39:01.762Z,55.51
2023-02-03T00:41:31.841Z,55.83
2023-02-03T00:43:58.837Z,59.52
2023-02-03T00:46:25.892Z,64.56
2023-02-03T00:48:55.689Z,62.15
2023-02-03T00:51:22.861Z,54.49
2023-02-03T00:53:49.999Z,55.91
2023-02-03T00:56:16.809Z,59.49
2023-02-03T00:58:44.537Z,65.83
2023-02-03T01:01:12.159Z,62.45
2023-02-03T01:03:39.867Z,54.50
2023-02-03T01:06:16.414Z,55.33
2023-02-03T01:08:44.294Z,58.64
2023-02-03T01:11:17.522Z,64.66
2023-02-03T01:13:45.256Z,64.38
2023-02-03T01:16:14.340Z,55.70
2023-02-03T01:18:43.139Z,55.91
2023-02-03T01:21:17.283Z,60.42
2023-02-03T01:23:44.816Z,66.47
2023-02-03T01:26:14.461Z,63.65
2023-02-03T01:28:41.912Z,54.46
2023-02-03T01:31:14.975Z,54.39
2023-02-03T01:33:46.334Z,58.71
2023-02-03T01:36:14.214Z,64.87
2023-02-03T01:38:41.775Z,63.84
2023-02-03T01:41:12.687Z,54.98
2023-02-03T01:43:46.191Z,55.36
2023-02-03T01:46:39.058Z,59.67
2023-02-03T01:49:12.453Z,66.81
2023-02-03T01:51:42.461Z,61.38
2023-02-03T01:54:15.060Z,53.10
2023-02-03T01:56:47.018Z,55.38
2023-02-03T01:59:17.850Z,59.10
2023-02-03T02:01:45.678Z,65.87
2023-02-03T02:04:13.084Z,62.13
2023-02-03T02:06:40.245Z,54.62
2023-02-03T02:09:12.099Z,56.53
2023-02-03T02:11:40.185Z,60.40
2023-02-03T02:14:10.298Z,66.00
2023-02-03T02:16:37.146Z,61.45
2023-02-03T02:19:35.106Z,54.03
2023-02-03T02:22:23.239Z,56.48
2023-02-03T02:25:11.575Z,61.22
2023-02-03T02:27:57.406Z,67.53
2023-02-03T02:30:55.417Z,62.34
2023-02-03T02:33:28.615Z,54.05
2023-02-03T02:35:58.737Z,56.00
2023-02-03T02:38:41.542Z,60.17
2023-02-03T02:41:19.155Z,66.43
2023-02-03T02:44:00.621Z,62.59
2023-02-03T02:46:35.480Z,59.58
2023-02-03T02:49:52.130Z,53.72
2023-02-03T02:52:21.842Z,55.24
2023-02-03T02:54:53.912Z,58.36
2023-02-03T02:57:25.063Z,64.66
2023-02-03T02:59:52.005Z,65.85
2023-02-03T03:02:19.265Z,58.47
2023-02-03T03:04:50.045Z,53.38
2023-02-03T03:07:24.216Z,55.28
2023-02-03T03:09:57.991Z,58.82
2023-02-03T03:12:31.507Z,61.10
2023-02-03T03:15:03.406Z,68.43
2023-02-03T03:17:47.978Z,66.21
2023-02-03T03:20:22.697Z,54.81
2023-02-03T03:22:56.376Z,54.08
2023-02-03T03:25:32.148Z,57.43
2023-02-03T03:28:05.170Z,60.78
2023-02-03T03:30:37.625Z,66.55
2023-02-03T03:33:06.300Z,59.71
2023-02-03T03:35:57.407Z,52.80
2023-02-03T03:38:33.866Z,54.36
2023-02-03T03:41:08.915Z,58.90
2023-02-03T03:43:40.349Z,61.31
2023-02-03T03:46:14.037Z,68.71
2023-02-03T03:48:52.467Z,61.46
2023-02-03T03:51:23.517Z,51.33
2023-02-03T03:53:52.312Z,53.55
2023-02-03T03:56:29.685Z,56.95
2023-02-03T03:59:00.147Z,60.85
2023-02-03T04:01:29.563Z,65.60
2023-02-03T04:04:02.313Z,60.59
2023-02-03T04:06:29.163Z,51.82
2023-02-03T04:08:56.425Z,53.35
2023-02-03T04:11:41.899Z,56.73
2023-02-03T04:14:09.664Z,60.21
2023-02-03T04:16:36.618Z,65.54
2023-02-03T04:19:03.470Z,61.80
2023-02-03T04:21:30.310Z,52.49
2023-02-03T04:23:57.038Z,52.93
2023-02-03T04:26:24.523Z,56.16
2023-02-03T04:28:51.467Z,59.92
2023-02-03T04:31:18.435Z,65.77
2023-02-03T04:33:45.469Z,60.72
2023-02-03T04:36:12.322Z,54.37
2023-02-03T04:38:39.274Z,56.44
2023-02-03T04:41:06.230Z,59.77
2023-02-03T04:43:33.027Z,62.50
2023-02-03T04:46:01.248Z,67.69
2023-02-03T04:48:29.225Z,60.51
2023-02-03T04:50:56.172Z,52.91
2023-02-03T04:53:23.047Z,54.04
2023-02-03T04:55:49.980Z,58.44
2023-02-03T04:58:16.923Z,61.72
2023-02-03T05:00:43.896Z,66.76
2023-02-03T05:03:10.886Z,62.46
2023-02-03T05:05:37.780Z,53.97
2023-02-03T05:08:05.234Z,55.88
2023-02-03T05:10:32.185Z,60.42
2023-02-03T05:12:59.452Z,65.59
2023-02-03T05:15:27.112Z,61.73
2023-02-03T05:17:55.520Z,53.48
2023-02-03T05:20:23.365Z,54.90
2023-02-03T05:22:50.618Z,59.12
2023-02-03T05:25:17.575Z,63.45
2023-02-03T05:27:44.452Z,66.80
2023-02-03T05:30:12.188Z,60.43
2023-02-03T05:32:39.069Z,52.87
2023-02-03T05:35:06.501Z,55.28
2023-02-03T05:37:33.345Z,58.64
2023-02-03T05:40:20.154Z,61.26
2023-02-03T05:42:50.583Z,69.50
2023-02-03T05:45:17.746Z,65.74
2023-02-03T05:47:44.682Z,58.55
2023-02-03T05:50:11.532Z,53.38
2023-02-03T05:52:38.484Z,56.43
2023-02-03T05:55:05.641Z,59.98
2023-02-03T05:57:32.587Z,65.84
2023-02-03T05:59:59.742Z,63.72
2023-02-03T06:02:26.694Z,54.39
2023-02-03T06:04:53.541Z,54.49
2023-02-03T06:07:20.366Z,58.57
2023-02-03T06:09:47.688Z,63.64
2023-02-03T06:12:16.191Z,64.85
2023-02-03T06:14:43.186Z,57.03
2023-02-03T06:17:10.053Z,53.76
2023-02-03T06:19:36.986Z,57.41
2023-02-03T06:22:03.936Z,59.88
2023-02-03T06:24:30.884Z,67.21
2023-02-03T06:26:57.843Z,63.08
2023-02-03T06:29:24.786Z,53.06
2023-02-03T06:31:51.835Z,54.24
2023-02-03T06:34:18.892Z,57.57
2023-02-03T06:36:45.947Z,61.58
2023-02-03T06:39:12.788Z,66.51
2023-02-03T06:41:39.750Z,59.16
2023-02-03T06:44:07.108Z,52.84
2023-02-03T06:46:34.367Z,55.48
2023-02-03T06:49:01.411Z,59.44
2023-02-03T06:51:28.372Z,61.84
2023-02-03T06:53:55.211Z,67.09
2023-02-03T06:56:22.161Z,59.90
2023-02-03T06:58:49.028Z,52.33
2023-02-03T07:01:16.118Z,54.69
2023-02-03T07:03:43.125Z,57.72
2023-02-03T07:06:09.970Z,60.98
2023-02-03T07:08:36.822Z,66.96
2023-02-03T07:11:03.864Z,63.02
2023-02-03T07:13:30.829Z,52.15
2023-02-03T07:15:57.721Z,52.13
2023-02-03T07:21:14.588Z,57.73
2023-02-03T07:23:41.759Z,59.69
2023-02-03T07:26:10.619Z,60.10
2023-02-03T07:28:37.697Z,59.98
2023-02-03T07:31:05.159Z,60.21
2023-02-03T07:33:32.202Z,60.26
2023-02-03T07:36:00.603Z,59.87
2023-02-03T07:38:28.569Z,59.72
2023-02-03T07:40:56.638Z,59.80
2023-02-03T07:43:24.408Z,59.33
2023-02-03T07:45:51.465Z,59.51
2023-02-03T07:48:18.641Z,59.09
2023-02-03T07:50:46.078Z,58.58
2023-02-03T07:53:12.933Z,58.09
2023-02-03T07:55:40.608Z,56.31
2023-02-03T07:58:08.262Z,54.23
2023-02-03T08:00:35.436Z,51.86
2023-02-03T08:03:02.778Z,51.52
2023-02-03T08:05:30.571Z,52.20
2023-02-03T08:07:59.526Z,52.61
2023-02-03T08:10:27.222Z,52.05
2023-02-03T08:12:55.591Z,50.68
2023-02-03T08:15:22.972Z,48.55
2023-02-03T08:17:50.772Z,46.61
2023-02-03T08:20:18.596Z,45.36
2023-02-03T08:22:46.970Z,43.22
2023-02-03T08:25:14.334Z,41.81
2023-02-03T08:27:41.742Z,40.86
2023-02-03T08:30:12.311Z,40.42
2023-02-03T08:32:39.481Z,40.10
2023-02-03T08:35:07.265Z,38.81
2023-02-03T08:37:34.713Z,38.65
2023-02-03T08:40:01.982Z,38.16
2023-02-03T08:42:29.122Z,38.37
2023-02-03T08:44:56.402Z,39.40
2023-02-03T08:47:23.337Z,40.53
2023-02-03T08:49:50.282Z,42.01
2023-02-03T08:52:19.133Z,44.03
2023-02-03T08:54:47.053Z,44.83
2023-02-03T08:57:14.735Z,45.87
2023-02-03T08:59:43.642Z,46.99
2023-02-03T09:02:16.037Z,48.57
2023-02-03T09:04:43.826Z,47.67
2023-02-03T09:07:11.541Z,46.54
2023-02-03T09:09:38.472Z,46.42
2023-02-03T09:12:10.897Z,47.15
2023-02-03T09:14:37.795Z,47.24
2023-02-03T09:17:05.983Z,47.70
2023-02-03T09:19:35.418Z,48.72
2023-02-03T09:22:03.484Z,49.50
2023-02-03T09:24:31.127Z,50.60
2023-02-03T09:26:58.405Z,50.64
2023-02-03T09:29:25.454Z,50.25
2023-02-03T09:31:53.277Z,49.45
2023-02-03T09:34:21.780Z,48.37
2023-02-03T09:36:49.462Z,47.70
2023-02-03T09:39:16.616Z,47.93
2023-02-03T09:42:26.253Z,48.83
2023-02-03T09:45:14.379Z,48.72
2023-02-03T09:47:45.166Z,48.78
2023-02-03T09:50:23.888Z,49.26
2023-02-03T09:52:52.011Z,49.62
2023-02-03T09:55:34.354Z,50.17
2023-02-03T09:58:10.472Z,49.65
2023-02-03T10:00:43.738Z,48.86
2023-02-03T10:03:31.895Z,49.09
2023-02-03T10:06:31.386Z,49.17
2023-02-03T10:09:22.294Z,49.56
2023-02-03T10:12:07.658Z,50.58
2023-02-03T10:14:34.614Z,49.91
2023-02-03T10:17:07.322Z,48.97
2023-02-03T10:19:44.581Z,49.27
2023-02-03T10:22:20.526Z,49.39
2023-02-03T10:25:07.437Z,50.07
2023-02-03T10:27:35.713Z,49.99
2023-02-03T10:30:20.469Z,50.04
2023-02-03T10:32:53.458Z,49.36
2023-02-03T10:35:24.910Z,48.70
2023-02-03T10:37:58.466Z,48.25
2023-02-03T10:40:27.392Z,46.90
2023-02-03T10:43:14.215Z,46.92
2023-02-03T10:45:41.175Z,47.03
2023-02-03T10:48:15.794Z,47.60
2023-02-03T10:50:47.145Z,47.95
2023-02-03T10:53:22.599Z,47.20
2023-02-03T10:56:12.059Z,46.82
2023-02-03T10:58:46.170Z,47.11
2023-02-03T11:01:15.931Z,46.96
2023-02-03T11:03:57.360Z,45.82
2023-02-03T11:06:24.308Z,44.91
2023-02-03T11:08:52.820Z,44.68
2023-02-03T11:11:29.363Z,46.07
2023-02-03T11:14:12.649Z,46.48
2023-02-03T11:16:42.692Z,46.49
2023-02-03T11:19:22.554Z,45.99
2023-02-03T11:21:56.140Z,45.89
2023-02-03T11:24:33.155Z,45.90
2023-02-03T11:27:07.051Z,44.89
2023-02-03T11:29:40.640Z,44.50
2023-02-03T11:32:38.405Z,44.33
2023-02-03T11:35:18.036Z,43.57
2023-02-03T11:37:50.717Z,43.72
2023-02-03T11:40:20.443Z,44.41
2023-02-03T11:42:50.147Z,44.66
2023-02-03T11:45:26.220Z,45.73
2023-02-03T11:48:06.145Z,47.65
2023-02-03T11:50:50.928Z,49.20
2023-02-03T11:53:27.577Z,51.17
2023-02-03T11:56:12.750Z,52.03
2023-02-03T11:58:57.712Z,53.04
2023-02-03T12:02:00.264Z,54.28
2023-02-03T12:04:42.281Z,53.77
2023-02-03T12:07:20.576Z,54.43
2023-02-03T12:09:54.691Z,54.81
2023-02-03T12:12:34.016Z,54.97
2023-02-03T12:15:19.803Z,55.32
2023-02-03T12:18:18.672Z,55.44
2023-02-03T12:21:00.667Z,55.49
2023-02-03T12:23:48.520Z,55.01
2023-02-03T12:26:25.701Z,56.43
2023-02-03T12:28:55.396Z,56.41
2023-02-03T12:31:46.221Z,56.62
2023-02-03T12:34:25.017Z,57.25
2023-02-03T12:37:18.366Z,58.16
2023-02-03T12:39:52.264Z,58.38
2023-02-03T12:42:30.587Z,57.90
2023-02-03T12:45:00.398Z,58.17
2023-02-03T12:47:51.163Z,58.75
2023-02-03T12:50:34.213Z,59.24
2023-02-03T12:53:10.069Z,59.06
2023-02-03T12:55:42.054Z,59.54
2023-02-03T12:58:27.515Z,59.35
2023-02-03T13:01:04.758Z,60.13
2023-02-03T13:04:09.500Z,60.69
2023-02-03T13:06:55.175Z,60.42
2023-02-03T13:10:14.975Z,61.03
2023-02-03T13:12:45.273Z,61.47
2023-02-03T13:15:33.388Z,60.92
2023-02-03T13:18:16.838Z,61.56
2023-02-03T13:20:45.721Z,62.09
2023-02-03T13:23:15.479Z,59.83
2023-02-03T13:25:57.766Z,53.95
2023-02-03T13:28:45.862Z,54.26
2023-02-03T13:31:41.994Z,56.94
2023-02-03T13:34:40.756Z,58.77
2023-02-03T13:37:13.630Z,60.10
2023-02-03T13:40:13.775Z,60.67
2023-02-03T13:43:06.287Z,61.51
2023-02-03T13:45:46.884Z,62.75
2023-02-03T13:48:16.858Z,55.61
2023-02-03T13:50:46.567Z,54.41
2023-02-03T13:53:25.938Z,56.88
2023-02-03T13:56:00.836Z,58.84
2023-02-03T13:58:33.622Z,60.47
2023-02-03T14:01:28.410Z,61.54
2023-02-03T14:03:56.924Z,62.18
2023-02-03T14:06:35.918Z,56.70
2023-02-03T14:09:22.617Z,54.84
2023-02-03T14:11:51.418Z,58.37
2023-02-03T14:14:20.921Z,61.79
2023-02-03T14:16:55.613Z,60.90
2023-02-03T14:19:22.590Z,54.98
2023-02-03T14:21:55.102Z,57.18
2023-02-03T14:24:22.954Z,60.85
2023-02-03T14:26:55.592Z,62.02
2023-02-03T14:29:29.659Z,55.68
2023-02-03T14:32:22.785Z,58.43
2023-02-03T14:34:50.865Z,64.30
2023-02-03T14:37:29.166Z,58.56
2023-02-03T14:39:56.019Z,57.66
2023-02-03T14:42:51.945Z,62.87
2023-02-03T14:45:36.288Z,59.93
2023-02-03T14:48:45.490Z,60.68
2023-02-03T14:51:24.512Z,62.62
2023-02-03T14:54:13.573Z,58.96
2023-02-03T14:57:02.232Z,64.16
2023-02-03T14:59:37.866Z,59.38
2023-02-03T15:02:27.884Z,57.19
2023-02-03T15:05:13.694Z,64.30
2023-02-03T15:07:49.805Z,59.27
2023-02-03T15:10:20.858Z,59.59
2023-02-03T15:12:52.892Z,65.02
2023-02-03T15:15:30.892Z,58.38
2023-02-03T15:18:00.702Z,58.55
2023-02-03T15:20:39.078Z,63.97
2023-02-03T15:23:29.206Z,59.12
2023-02-03T15:25:58.719Z,57.48
2023-02-03T15:28:27.920Z,63.72
2023-02-03T15:31:07.654Z,62.58
2023-02-03T15:33:39.000Z,56.12
2023-02-03T15:36:15.162Z,60.50
2023-02-03T15:38:49.183Z,64.96
2023-02-03T15:41:23.699Z,60.14
2023-02-03T15:44:02.002Z,55.24
2023-02-03T15:46:37.482Z,60.60
2023-02-03T15:49:13.406Z,64.07
2023-02-03T15:51:47.721Z,57.26
2023-02-03T15:54:30.124Z,59.77
2023-02-03T15:57:11.613Z,65.00
2023-02-03T15:59:46.466Z,59.93
2023-02-03T16:02:15.019Z,55.17
2023-02-03T16:04:42.694Z,58.85
2023-02-03T16:07:22.852Z,65.68
2023-02-03T16:09:57.064Z,59.05
2023-02-03T16:12:32.415Z,58.44
2023-02-03T16:15:01.291Z,64.65
2023-02-03T16:17:31.970Z,61.73
2023-02-03T16:20:10.885Z,55.39
2023-02-03T16:22:40.067Z,59.03
2023-02-03T16:25:28.687Z,64.38
2023-02-03T16:28:16.379Z,57.81
2023-02-03T16:31:19.057Z,60.02
2023-02-03T16:34:06.919Z,64.98
2023-02-03T16:36:53.012Z,57.95
2023-02-03T16:39:38.377Z,58.91
2023-02-03T16:42:33.190Z,64.35
2023-02-03T16:45:18.636Z,57.76
2023-02-03T16:48:05.539Z,59.25
2023-02-03T16:50:51.628Z,64.52
2023-02-03T16:53:29.222Z,59.10
2023-02-03T16:55:58.387Z,56.73
2023-02-03T16:58:25.696Z,62.24
2023-02-03T17:00:54.021Z,63.96
2023-02-03T17:03:26.436Z,57.45
2023-02-03T17:05:54.921Z,58.78
2023-02-03T17:08:26.205Z,64.69
2023-02-03T17:10:53.728Z,59.02
2023-02-03T17:13:22.375Z,56.63
2023-02-03T17:15:52.951Z,62.04
2023-02-03T17:18:20.251Z,65.30
2023-02-03T17:20:47.983Z,56.44
2023-02-03T17:23:19.541Z,56.16
2023-02-03T17:25:50.170Z,63.11
2023-02-03T17:28:18.016Z,62.08
2023-02-03T17:30:45.744Z,54.74
2023-02-03T17:33:12.997Z,59.34
2023-02-03T17:35:45.486Z,64.35
2023-02-03T17:38:14.863Z,57.74
2023-02-03T17:54:33.354Z,63.97
2023-02-03T17:57:00.304Z,56.97
2023-02-03T17:59:27.677Z,60.02
2023-02-03T18:01:55.131Z,64.76
2023-02-03T18:04:22.713Z,59.63
2023-02-03T18:06:49.626Z,56.88
2023-02-03T18:09:17.187Z,61.52
2023-02-03T18:11:45.166Z,63.38
2023-02-03T18:14:16.778Z,58.72
2023-02-03T18:16:45.224Z,57.12
2023-02-03T18:19:16.502Z,62.18
2023-02-03T18:21:44.732Z,64.23
2023-02-03T18:24:13.841Z,57.68
2023-02-03T18:26:49.004Z,58.22
2023-02-03T18:29:16.013Z,63.52
2023-02-03T18:31:44.412Z,63.83
2023-02-03T18:34:12.255Z,57.37
2023-02-03T18:39:07.286Z,63.87
2023-02-03T18:41:36.908Z,63.70
2023-02-03T18:44:04.379Z,56.84
2023-02-03T18:46:32.938Z,57.20
2023-02-03T18:49:01.057Z,63.02
2023-02-03T18:51:28.743Z,64.30
2023-02-03T18:53:59.970Z,57.49
2023-02-03T18:56:35.317Z,58.03
2023-02-03T18:59:08.322Z,62.25
2023-02-03T19:01:36.566Z,67.39
2023-02-03T19:04:05.265Z,60.66
2023-02-03T19:06:34.943Z,55.88
2023-02-03T19:09:03.064Z,59.78
2023-02-03T19:11:30.108Z,64.75
2023-02-03T19:13:57.061Z,61.11
2023-02-03T19:16:23.964Z,55.12
2023-02-03T19:18:51.282Z,57.81
2023-02-03T19:21:18.527Z,63.78
2023-02-03T19:23:45.998Z,62.43
2023-02-03T19:26:15.606Z,56.03
2023-02-03T19:28:42.654Z,58.48
2023-02-03T19:31:15.541Z,63.60
2023-02-03T19:33:43.015Z,62.31
2023-02-03T19:36:11.821Z,56.53
2023-02-03T19:38:39.105Z,58.50
2023-02-03T19:41:07.993Z,64.17
2023-02-03T19:43:35.526Z,63.54
2023-02-03T19:46:02.742Z,57.46
2023-02-03T19:48:30.349Z,59.55
2023-02-03T19:50:57.813Z,64.01
2023-02-03T19:53:25.172Z,61.08
2023-02-03T19:55:53.286Z,55.79
2023-02-03T19:58:20.934Z,58.91
2023-02-03T20:00:48.992Z,63.86
2023-02-03T20:03:18.906Z,63.01
2023-02-03T20:05:49.640Z,56.46
2023-02-03T20:08:17.659Z,58.89
2023-02-03T20:10:45.591Z,63.82
2023-02-03T20:13:15.165Z,63.70
2023-02-03T20:15:43.484Z,59.92
2023-02-03T20:18:10.653Z,54.60
2023-02-03T20:20:38.095Z,57.29
2023-02-03T20:23:05.132Z,62.43
2023-02-03T20:25:32.411Z,62.68
2023-02-03T20:28:02.725Z,56.03
2023-02-03T20:30:30.909Z,58.46
2023-02-03T20:32:58.790Z,63.26
2023-02-03T20:35:27.626Z,66.24
2023-02-03T20:37:55.372Z,60.36
2023-02-03T20:40:25.083Z,56.02
2023-02-03T20:42:53.280Z,58.08
2023-02-03T20:45:25.493Z,62.94
2023-02-03T20:47:52.959Z,65.36
2023-02-03T20:50:28.955Z,58.23
2023-02-03T20:52:58.999Z,57.00
2023-02-03T20:55:27.241Z,61.99
2023-02-03T20:57:57.249Z,65.78
2023-02-03T21:00:26.697Z,62.29
2023-02-03T21:03:12.464Z,56.42
2023-02-03T21:05:45.603Z,57.56
2023-02-03T21:08:15.801Z,62.41
2023-02-03T21:10:44.658Z,66.54
2023-02-03T21:13:24.833Z,61.75
2023-02-03T21:15:55.339Z,55.63
2023-02-03T21:18:37.332Z,57.45
2023-02-03T21:21:05.707Z,61.93
2023-02-03T21:23:40.326Z,66.63
2023-02-03T21:26:31.345Z,60.66
2023-02-03T21:28:59.935Z,55.56
2023-02-03T21:31:32.665Z,59.19
2023-02-03T21:34:24.129Z,63.35
2023-02-03T21:36:51.194Z,65.33
2023-02-03T21:39:30.737Z,59.65
2023-02-03T21:42:01.055Z,55.13
2023-02-03T21:44:36.389Z,59.21
2023-02-03T21:47:05.667Z,63.86
2023-02-03T21:49:34.369Z,62.96
2023-02-03T21:52:01.454Z,57.74
2023-02-03T21:54:33.346Z,55.64
2023-02-03T21:57:01.368Z,59.71
2023-02-03T21:59:37.522Z,65.01
2023-02-03T22:02:23.068Z,60.24
2023-02-03T22:04:50.059Z,55.12
2023-02-03T22:07:18.652Z,58.76
2023-02-03T22:09:50.402Z,63.30
2023-02-03T22:12:17.663Z,65.53
2023-02-03T22:14:44.575Z,57.06
2023-02-03T22:17:14.277Z,55.05
2023-02-03T22:19:43.332Z,58.93
2023-02-03T22:22:10.473Z,63.08
2023-02-03T22:24:37.535Z,66.30
2023-02-03T22:27:04.804Z,59.86
2023-02-03T22:29:31.942Z,55.63
2023-02-03T22:31:59.061Z,58.91
2023-02-03T22:34:27.208Z,64.02
2023-02-03T22:36:54.334Z,61.73
2023-02-03T22:39:21.474Z,54.67
2023-02-03T22:41:48.567Z,57.51
2023-02-03T22:44:18.146Z,61.74
2023-02-03T22:46:45.202Z,66.75
2023-02-03T22:49:12.664Z,62.59
2023-02-03T22:51:40.638Z,56.38
2023-02-03T22:54:07.784Z,58.41
2023-02-03T22:56:35.170Z,63.52
2023-02-03T22:59:04.894Z,65.23
2023-02-03T23:01:32.232Z,58.32
2023-02-03T23:03:59.302Z,56.27
2023-02-03T23:06:26.434Z,60.17
2023-02-03T23:08:55.737Z,65.25
2023-02-03T23:11:23.103Z,61.28
2023-02-03T23:13:50.147Z,54.90
2023-02-03T23:16:17.267Z,57.01
2023-02-03T23:18:44.475Z,61.87
2023-02-03T23:21:11.518Z,66.68
2023-02-03T23:23:38.556Z,60.63
2023-02-03T23:26:05.711Z,54.64
2023-02-03T23:28:32.676Z,58.37
2023-02-03T23:30:59.782Z,63.34
2023-02-03T23:33:26.779Z,66.37
2023-02-03T23:35:55.448Z,57.70
2023-02-03T23:38:22.432Z,54.85
2023-02-03T23:40:49.609Z,59.73
2023-02-03T23:43:16.921Z,65.34
2023-02-03T23:45:43.880Z,62.07
2023-02-03T23:48:11.235Z,55.30
2023-02-03T23:50:38.692Z,56.67
2023-02-03T23:53:05.853Z,62.17
2023-02-03T23:55:32.697Z,65.98
2023-02-03T23:57:59.758Z,57.23
